createdAt,value
2023-05-13T00:00:25.121Z,9.86
2023-05-13T00:02:53.053Z,9.92
2023-05-13T00:05:21.275Z,9.88
2023-05-13T00:07:49.289Z,9.93
2023-05-13T00:14:44.497Z,9.80
2023-05-13T00:17:12.617Z,9.78
2023-05-13T00:19:40.995Z,9.81
2023-05-13T00:22:09.186Z,9.77
2023-05-13T00:28:26.929Z,9.77
2023-05-13T00:30:54.777Z,9.72
2023-05-13T00:33:22.805Z,9.65
2023-05-13T00:35:50.691Z,9.40
2023-05-13T00:38:18.599Z,9.10
2023-05-13T00:40:47.431Z,8.97
2023-05-13T00:43:15.700Z,8.44
2023-05-13T00:45:43.688Z,8.56
2023-05-13T00:48:11.943Z,8.61
2023-05-13T00:50:42.490Z,8.54
2023-05-13T00:53:13.150Z,8.57
2023-05-13T00:55:45.576Z,8.69
2023-05-13T00:58:14.079Z,8.83
2023-05-13T01:00:55.215Z,8.82
2023-05-13T01:03:35.102Z,8.80
2023-05-13T01:06:17.381Z,8.68
2023-05-13T01:09:26.701Z,8.79
2023-05-13T01:11:57.508Z,8.73
2023-05-13T01:14:35.721Z,8.70
2023-05-13T01:17:24.716Z,8.51
2023-05-13T01:19:58.044Z,8.48
2023-05-13T01:22:26.384Z,8.51
2023-05-13T01:24:54.385Z,8.43
2023-05-13T01:27:22.540Z,8.30
2023-05-13T01:29:50.868Z,8.26
2023-05-13T01:32:25.031Z,8.32
2023-05-13T01:34:53.813Z,8.36
2023-05-13T01:37:23.167Z,8.27
2023-05-13T01:39:52.129Z,8.20
2023-05-13T01:42:20.179Z,8.24
2023-05-13T01:44:48.424Z,8.23
2023-05-13T01:47:16.967Z,8.23
2023-05-13T01:49:44.922Z,8.24
2023-05-13T01:52:13.072Z,8.16
2023-05-13T01:54:40.944Z,8.13
2023-05-13T01:57:12.440Z,8.08
2023-05-13T01:59:40.514Z,8.07
2023-05-13T02:02:08.636Z,8.03
2023-05-13T02:04:36.602Z,8.06
2023-05-13T02:07:04.862Z,8.07
2023-05-13T02:09:33.965Z,8.12
2023-05-13T02:12:01.991Z,8.12
2023-05-13T02:14:30.465Z,8.19
2023-05-13T02:16:58.477Z,8.30
2023-05-13T02:19:26.690Z,8.28
2023-05-13T02:21:54.538Z,8.32
2023-05-13T02:24:22.709Z,8.41
2023-05-13T02:26:50.588Z,8.47
2023-05-13T02:29:18.513Z,8.55
2023-05-13T02:31:46.453Z,8.30
2023-05-13T02:34:14.950Z,8.13
2023-05-13T02:36:42.844Z,8.17
2023-05-13T02:39:10.776Z,8.05
2023-05-13T02:41:39.254Z,8.14
2023-05-13T02:44:07.284Z,8.08
2023-05-13T02:46:35.822Z,8.02
2023-05-13T02:49:03.937Z,7.78
2023-05-13T02:54:33.050Z,7.82
2023-05-13T02:57:01.323Z,7.87
2023-05-13T02:59:29.320Z,7.79
2023-05-13T03:01:57.776Z,7.96
2023-05-13T03:04:25.709Z,8.17
2023-05-13T03:06:53.676Z,8.31
2023-05-13T03:09:21.595Z,8.43
2023-05-13T03:11:49.645Z,8.58
2023-05-13T03:14:17.599Z,8.64
2023-05-13T03:16:45.566Z,8.72
2023-05-13T03:19:15.822Z,8.81
2023-05-13T03:21:43.857Z,8.88
2023-05-13T03:24:15.202Z,8.86
2023-05-13T03:26:43.314Z,8.72
2023-05-13T03:29:11.405Z,8.94
2023-05-13T03:31:40.055Z,8.90
2023-05-13T03:34:08.768Z,9.03
2023-05-13T03:36:37.895Z,9.05
2023-05-13T03:39:06.354Z,9.01
2023-05-13T03:41:35.203Z,8.98
2023-05-13T03:44:03.823Z,8.98
2023-05-13T03:46:32.276Z,9.04
2023-05-13T03:49:00.461Z,9.07
2023-05-13T03:51:29.980Z,9.08
2023-05-13T03:53:58.264Z,9.12
2023-05-13T03:56:26.366Z,9.12
2023-05-13T03:58:54.469Z,9.12
2023-05-13T04:01:22.498Z,9.06
2023-05-13T04:03:50.518Z,9.05
2023-05-13T04:06:18.847Z,9.10
2023-05-13T04:08:49.583Z,9.06
2023-05-13T04:11:17.525Z,9.11
2023-05-13T04:13:46.248Z,9.20
2023-05-13T04:16:14.708Z,9.15
2023-05-13T04:18:42.980Z,9.16
2023-05-13T04:21:11.682Z,9.16
2023-05-13T04:23:39.609Z,9.25
2023-05-13T04:26:07.488Z,9.22
2023-05-13T04:28:35.619Z,9.22
2023-05-13T04:31:04.046Z,9.31
2023-05-13T04:33:34.046Z,9.24
2023-05-13T04:36:02.088Z,9.28
2023-05-13T04:38:31.666Z,9.23
2023-05-13T04:41:00.017Z,9.25
2023-05-13T04:43:36.960Z,9.26
2023-05-13T04:46:05.094Z,9.25
2023-05-13T04:48:33.494Z,9.29
2023-05-13T04:51:01.880Z,9.30
2023-05-13T04:53:31.293Z,9.09
2023-05-13T04:56:02.653Z,8.72
2023-05-13T04:58:31.557Z,9.00
2023-05-13T05:00:59.665Z,8.99
2023-05-13T05:03:27.604Z,9.03
2023-05-13T05:05:55.879Z,8.81
2023-05-13T05:08:25.232Z,8.97
2023-05-13T05:10:53.865Z,9.05
2023-05-13T05:13:22.172Z,9.20
2023-05-13T05:15:50.682Z,9.39
2023-05-13T05:18:18.752Z,9.61
2023-05-13T05:20:49.453Z,9.71
2023-05-13T05:23:19.863Z,9.93
2023-05-13T05:25:49.824Z,9.59
2023-05-13T05:28:21.988Z,9.56
2023-05-13T05:30:49.944Z,9.70
2023-05-13T05:33:27.483Z,9.48
2023-05-13T05:35:55.577Z,9.65
2023-05-13T05:38:27.023Z,9.98
2023-05-13T05:40:57.073Z,10.41
2023-05-13T05:43:26.533Z,10.73
2023-05-13T05:45:54.518Z,10.64
2023-05-13T05:48:23.620Z,10.69
2023-05-13T05:50:51.639Z,11.21
2023-05-13T05:53:26.637Z,11.32
2023-05-13T05:55:55.159Z,11.71
2023-05-13T05:58:23.865Z,11.83
2023-05-13T06:00:52.221Z,11.76
2023-05-13T06:03:21.602Z,11.91
2023-05-13T06:05:49.859Z,12.44
2023-05-13T06:08:19.656Z,13.01
2023-05-13T06:10:47.567Z,12.61
2023-05-13T06:13:16.250Z,12.45
2023-05-13T06:15:44.280Z,12.36
2023-05-13T06:18:12.901Z,11.90
2023-05-13T06:20:41.178Z,12.17
2023-05-13T06:23:10.986Z,12.57
2023-05-13T06:25:39.150Z,13.02
2023-05-13T06:28:09.068Z,14.13
2023-05-13T06:30:38.271Z,15.36
2023-05-13T06:33:06.616Z,17.85
2023-05-13T06:35:34.910Z,19.80
2023-05-13T06:38:06.298Z,21.58
2023-05-13T06:40:35.642Z,22.46
2023-05-13T06:43:04.042Z,23.52
2023-05-13T06:45:38.968Z,24.44
2023-05-13T06:48:07.131Z,24.68
2023-05-13T06:50:35.313Z,24.85
2023-05-13T06:53:03.778Z,23.55
2023-05-13T06:55:32.256Z,22.55
2023-05-13T06:58:00.181Z,20.15
2023-05-13T07:00:28.144Z,20.37
2023-05-13T07:02:56.121Z,19.95
2023-05-13T07:05:24.262Z,18.85
2023-05-13T07:07:53.956Z,18.54
2023-05-13T07:10:22.220Z,17.90
2023-05-13T07:12:50.368Z,17.82
2023-05-13T07:15:18.637Z,18.24
2023-05-13T07:17:46.660Z,18.35
2023-05-13T07:20:14.915Z,18.34
2023-05-13T07:22:42.977Z,18.60
2023-05-13T07:25:11.565Z,19.74
2023-05-13T07:27:39.569Z,21.34
2023-05-13T07:30:08.488Z,22.45
2023-05-13T07:32:37.349Z,23.95
2023-05-13T07:35:06.684Z,23.54
2023-05-13T07:37:35.059Z,24.31
2023-05-13T07:40:04.795Z,23.53
2023-05-13T07:42:33.314Z,20.80
2023-05-13T07:45:01.481Z,19.78
2023-05-13T07:47:31.817Z,19.86
2023-05-13T07:50:00.770Z,19.56
2023-05-13T07:52:28.913Z,19.87
2023-05-13T07:54:56.990Z,19.64
2023-05-13T07:57:24.938Z,19.78
2023-05-13T07:59:54.613Z,19.70
2023-05-13T08:02:23.117Z,19.68
2023-05-13T08:04:53.737Z,19.34
2023-05-13T08:07:21.774Z,18.89
2023-05-13T08:09:49.656Z,17.54
2023-05-13T08:12:17.630Z,17.19
2023-05-13T08:14:47.555Z,17.64
2023-05-13T08:17:18.468Z,18.23
2023-05-13T08:19:46.722Z,18.40
2023-05-13T08:22:14.840Z,18.36
2023-05-13T08:24:43.516Z,18.37
2023-05-13T08:27:13.034Z,17.90
2023-05-13T08:29:40.973Z,17.79
2023-05-13T08:32:09.112Z,17.68
2023-05-13T08:34:37.162Z,17.64
2023-05-13T08:37:05.602Z,17.47
2023-05-13T08:39:34.578Z,17.68
2023-05-13T08:42:04.459Z,18.53
2023-05-13T08:44:36.589Z,18.95
2023-05-13T08:47:16.341Z,19.35
2023-05-13T08:49:46.929Z,20.28
2023-05-13T08:52:15.304Z,20.70
2023-05-13T08:54:44.584Z,20.41
2023-05-13T08:57:13.240Z,20.50
2023-05-13T08:59:41.358Z,20.39
2023-05-13T09:02:11.033Z,20.43
2023-05-13T09:04:41.629Z,20.28
2023-05-13T09:07:11.900Z,20.47
2023-05-13T09:09:41.286Z,20.03
2023-05-13T09:12:09.570Z,19.63
2023-05-13T09:14:38.981Z,19.49
2023-05-13T09:17:08.296Z,18.74
2023-05-13T09:19:36.880Z,18.00
2023-05-13T09:22:05.427Z,17.65
2023-05-13T09:24:33.802Z,17.55
2023-05-13T09:27:01.834Z,17.58
2023-05-13T09:29:29.869Z,18.21
2023-05-13T09:32:00.516Z,18.28
2023-05-13T09:34:30.191Z,18.68
2023-05-13T09:37:06.627Z,19.07
2023-05-13T09:39:40.161Z,19.14
2023-05-13T09:42:19.296Z,19.28
2023-05-13T09:44:48.543Z,19.27
2023-05-13T09:47:18.210Z,19.33
2023-05-13T09:49:56.883Z,19.34
2023-05-13T09:52:25.251Z,19.44
2023-05-13T09:54:56.545Z,19.58
2023-05-13T09:57:24.732Z,19.62
2023-05-13T09:59:58.535Z,19.71
2023-05-13T10:02:28.568Z,19.90
2023-05-13T10:04:57.466Z,19.46
2023-05-13T10:07:26.189Z,19.43
2023-05-13T10:09:57.600Z,19.31
2023-05-13T10:12:26.918Z,19.28
2023-05-13T10:14:56.287Z,18.98
2023-05-13T10:17:26.328Z,19.01
2023-05-13T10:19:55.256Z,18.65
2023-05-13T10:22:32.130Z,18.53
2023-05-13T10:25:03.284Z,18.70
2023-05-13T10:27:34.283Z,18.64
2023-05-13T10:30:06.192Z,18.71
2023-05-13T10:32:37.406Z,18.66
2023-05-13T10:35:21.007Z,18.42
2023-05-13T10:37:55.256Z,18.48
2023-05-13T10:40:47.629Z,18.30
2023-05-13T10:43:29.147Z,18.30
2023-05-13T10:46:08.535Z,18.55
2023-05-13T10:48:41.050Z,18.62
2023-05-13T10:51:13.931Z,18.19
2023-05-13T10:53:53.605Z,18.35
2023-05-13T10:56:24.662Z,18.31
2023-05-13T10:58:59.442Z,18.10
2023-05-13T11:01:31.999Z,18.16
2023-05-13T11:04:03.741Z,18.31
2023-05-13T11:06:39.009Z,18.40
2023-05-13T11:09:29.294Z,18.09
2023-05-13T11:12:01.838Z,17.70
2023-05-13T11:14:32.933Z,17.68
2023-05-13T11:17:01.416Z,17.89
2023-05-13T11:19:32.237Z,18.17
2023-05-13T11:22:19.447Z,18.21
2023-05-13T11:25:09.413Z,18.34
2023-05-13T11:27:43.353Z,18.61
2023-05-13T11:30:26.589Z,18.54
2023-05-13T11:32:57.428Z,18.32
2023-05-13T11:35:25.970Z,18.10
2023-05-13T11:38:00.141Z,18.24
2023-05-13T11:40:32.368Z,18.59
2023-05-13T11:43:01.528Z,18.96
2023-05-13T11:45:30.612Z,19.17
2023-05-13T11:47:59.613Z,19.01
2023-05-13T11:50:35.579Z,18.97
2023-05-13T11:53:04.127Z,18.71
2023-05-13T11:55:37.234Z,18.76
2023-05-13T11:58:05.625Z,19.06
2023-05-13T12:00:35.225Z,19.11
2023-05-13T12:03:12.221Z,18.70
2023-05-13T12:05:40.901Z,18.53
2023-05-13T12:08:10.976Z,18.74
2023-05-13T12:10:48.550Z,18.70
2023-05-13T12:13:17.518Z,18.67
2023-05-13T12:15:46.359Z,18.91
2023-05-13T12:18:15.034Z,19.11
2023-05-13T12:20:43.502Z,19.26
2023-05-13T12:23:14.584Z,19.11
2023-05-13T12:25:48.540Z,19.15
2023-05-13T12:28:21.664Z,19.23
2023-05-13T12:31:14.697Z,19.32
2023-05-13T12:33:44.821Z,19.30
2023-05-13T12:36:34.072Z,19.55
2023-05-13T12:39:11.903Z,19.84
2023-05-13T12:41:42.758Z,20.02
2023-05-13T12:44:15.370Z,20.12
2023-05-13T12:46:55.756Z,19.87
2023-05-13T12:49:24.856Z,19.36
2023-05-13T12:51:53.220Z,19.18
2023-05-13T12:54:22.146Z,18.88
2023-05-13T12:56:50.577Z,18.92
2023-05-13T12:59:19.558Z,18.77
2023-05-13T13:01:50.196Z,18.68
2023-05-13T13:04:19.910Z,18.86
2023-05-13T13:06:48.576Z,18.96
2023-05-13T13:09:17.064Z,18.94
2023-05-13T13:11:45.360Z,19.14
2023-05-13T13:14:13.954Z,19.28
2023-05-13T13:16:43.259Z,19.23
2023-05-13T13:19:11.738Z,18.82
2023-05-13T13:21:40.376Z,18.60
2023-05-13T13:24:09.224Z,18.90
2023-05-13T13:26:37.781Z,18.93
2023-05-13T13:29:05.836Z,19.21
2023-05-13T13:31:34.558Z,19.29
2023-05-13T13:34:05.225Z,19.35
2023-05-13T13:36:33.587Z,19.31
2023-05-13T13:39:02.197Z,18.87
2023-05-13T13:41:30.855Z,18.98
2023-05-13T13:43:59.014Z,18.75
2023-05-13T13:46:27.549Z,18.73
2023-05-13T13:48:55.855Z,18.86
2023-05-13T13:51:24.281Z,18.83
2023-05-13T13:53:52.875Z,18.67
2023-05-13T13:56:21.431Z,18.71
2023-05-13T13:58:49.858Z,18.64
2023-05-13T14:01:20.153Z,18.76
2023-05-13T14:03:50.789Z,18.96
2023-05-13T14:06:20.301Z,19.05
2023-05-13T14:08:51.319Z,19.08
2023-05-13T14:11:19.942Z,19.06
2023-05-13T14:13:48.220Z,19.29
2023-05-13T14:16:16.788Z,19.26
2023-05-13T14:18:45.381Z,19.36
2023-05-13T14:21:14.056Z,19.23
2023-05-13T14:23:42.401Z,19.27
2023-05-13T14:26:12.179Z,19.40
2023-05-13T14:28:40.726Z,19.41
2023-05-13T14:31:09.278Z,19.42
2023-05-13T14:33:37.886Z,19.32
2023-05-13T14:36:06.723Z,19.27
2023-05-13T14:38:35.174Z,19.29
2023-05-13T14:41:03.771Z,18.98
2023-05-13T14:43:32.094Z,18.67
2023-05-13T14:46:00.484Z,18.67
2023-05-13T14:48:29.111Z,18.36
2023-05-13T14:50:57.422Z,18.43
2023-05-13T14:53:25.847Z,18.55
2023-05-13T14:55:55.306Z,18.55
2023-05-13T14:58:24.153Z,18.55
2023-05-13T15:00:52.549Z,18.54
2023-05-13T15:03:20.916Z,18.56
2023-05-13T15:05:50.618Z,18.45
2023-05-13T15:08:19.856Z,18.27
2023-05-13T15:10:48.410Z,18.22
2023-05-13T15:13:19.353Z,17.95
2023-05-13T15:15:47.859Z,17.75
2023-05-13T15:18:16.364Z,17.65
2023-05-13T15:20:45.793Z,17.60
2023-05-13T15:23:15.033Z,17.49
2023-05-13T15:25:43.430Z,17.44
2023-05-13T15:28:12.159Z,17.42
2023-05-13T15:30:40.621Z,17.42
2023-05-13T15:33:08.951Z,17.53
2023-05-13T15:35:37.314Z,17.38
2023-05-13T15:38:05.786Z,17.13
2023-05-13T15:40:34.308Z,17.10
2023-05-13T15:43:02.698Z,17.07
2023-05-13T15:45:31.520Z,17.09
2023-05-13T15:48:00.169Z,17.06
2023-05-13T15:50:28.804Z,17.09
2023-05-13T15:52:57.188Z,17.22
2023-05-13T15:55:26.703Z,17.18
2023-05-13T15:57:55.155Z,17.32
2023-05-13T16:00:24.034Z,17.34
2023-05-13T16:02:52.714Z,17.39
2023-05-13T16:05:21.334Z,17.37
2023-05-13T16:07:50.188Z,17.41
2023-05-13T16:10:19.299Z,17.46
2023-05-13T16:12:47.778Z,17.12
2023-05-13T16:15:16.085Z,17.18
2023-05-13T16:17:44.244Z,17.05
2023-05-13T16:20:13.801Z,16.98
2023-05-13T16:22:42.245Z,17.02
2023-05-13T16:25:12.049Z,16.89
2023-05-13T16:27:43.402Z,16.83
2023-05-13T16:30:12.728Z,16.77
2023-05-13T16:32:41.259Z,16.66
2023-05-13T16:35:12.307Z,16.68
2023-05-13T16:37:40.732Z,16.61
2023-05-13T16:40:09.827Z,16.54
2023-05-13T16:42:38.351Z,16.68
2023-05-13T16:45:07.549Z,16.70
2023-05-13T16:47:36.116Z,16.57
2023-05-13T16:50:04.951Z,16.50
2023-05-13T16:52:34.470Z,16.35
2023-05-13T16:55:03.455Z,16.45
2023-05-13T16:57:32.082Z,16.56
2023-05-13T17:00:00.523Z,16.39
2023-05-13T17:02:29.091Z,16.50
2023-05-13T17:04:57.489Z,16.58
2023-05-13T17:07:26.105Z,16.60
2023-05-13T17:09:54.523Z,16.24
2023-05-13T17:12:23.017Z,16.20
2023-05-13T17:14:52.160Z,16.01
2023-05-13T17:17:21.060Z,15.86
2023-05-13T17:19:49.796Z,15.74
2023-05-13T17:22:18.338Z,15.69
2023-05-13T17:24:46.776Z,15.71
2023-05-13T17:27:15.068Z,15.46
2023-05-13T17:29:43.667Z,15.53
2023-05-13T17:32:12.505Z,15.47
2023-05-13T17:34:41.178Z,15.36
2023-05-13T17:37:09.586Z,15.42
2023-05-13T17:39:38.123Z,15.56
2023-05-13T17:42:06.726Z,15.64
2023-05-13T17:44:34.725Z,15.50
2023-05-13T17:47:02.986Z,15.71
2023-05-13T17:49:31.381Z,15.74
2023-05-13T17:51:59.719Z,15.65
2023-05-13T17:54:28.137Z,15.58
2023-05-13T17:56:56.480Z,15.56
2023-05-13T17:59:24.678Z,15.59
2023-05-13T18:01:53.205Z,15.45
2023-05-13T18:04:21.896Z,15.57
2023-05-13T18:06:50.524Z,15.47
2023-05-13T18:09:18.977Z,15.46
2023-05-13T18:11:47.354Z,15.58
2023-05-13T18:14:15.984Z,15.61
2023-05-13T18:16:44.566Z,15.55
2023-05-13T18:19:13.226Z,15.58
2023-05-13T18:21:41.626Z,15.49
2023-05-13T18:24:10.222Z,15.48
2023-05-13T18:26:38.650Z,15.46
2023-05-13T18:29:07.383Z,15.50
2023-05-13T18:31:35.923Z,15.34
2023-05-13T18:34:04.175Z,14.91
2023-05-13T18:36:33.139Z,15.05
2023-05-13T18:39:01.495Z,15.12
2023-05-13T18:41:30.030Z,15.13
2023-05-13T18:43:58.361Z,15.14
2023-05-13T18:46:27.071Z,15.12
2023-05-13T18:48:55.504Z,15.11
2023-05-13T18:51:24.094Z,15.10
2023-05-13T18:53:52.496Z,15.10
2023-05-13T18:56:24.385Z,15.10
2023-05-13T18:58:53.161Z,15.06
2023-05-13T19:01:21.672Z,14.96
2023-05-13T19:03:51.267Z,14.97
2023-05-13T19:06:19.693Z,14.60
2023-05-13T19:08:48.295Z,14.66
2023-05-13T19:11:16.692Z,14.57
2023-05-13T19:13:47.518Z,14.55
2023-05-13T19:16:16.792Z,14.65
2023-05-13T19:18:44.981Z,14.67
2023-05-13T19:21:13.404Z,14.37
2023-05-13T19:23:41.852Z,14.47
2023-05-13T19:26:12.893Z,14.52
2023-05-13T19:28:44.325Z,14.55
2023-05-13T19:31:12.985Z,14.58
2023-05-13T19:33:41.596Z,14.61
2023-05-13T19:36:11.136Z,14.65
2023-05-13T19:38:39.693Z,14.63
2023-05-13T19:41:07.895Z,14.48
2023-05-13T19:43:36.309Z,14.58
2023-05-13T19:46:04.792Z,14.60
2023-05-13T19:48:33.209Z,14.61
2023-05-13T19:51:01.966Z,14.62
2023-05-13T19:53:30.504Z,14.64
2023-05-13T19:55:59.051Z,14.62
2023-05-13T19:58:27.498Z,14.63
2023-05-13T20:00:56.621Z,14.59
2023-05-13T20:03:24.951Z,14.57
2023-05-13T20:05:54.325Z,14.57
2023-05-13T20:08:23.269Z,14.51
2023-05-13T20:10:52.497Z,14.47
2023-05-13T20:13:21.084Z,14.45
2023-05-13T20:15:49.491Z,14.42
2023-05-13T20:18:18.057Z,14.38
2023-05-13T20:20:47.471Z,14.38
2023-05-13T20:23:15.786Z,14.38
2023-05-13T20:25:46.135Z,14.36
2023-05-13T20:28:14.576Z,14.19
2023-05-13T20:30:43.277Z,14.30
2023-05-13T20:33:11.982Z,14.23
2023-05-13T20:35:40.266Z,14.19
2023-05-13T20:38:08.538Z,14.10
2023-05-13T20:40:37.006Z,14.04
2023-05-13T20:43:07.502Z,14.12
2023-05-13T20:45:39.792Z,14.07
2023-05-13T20:48:08.252Z,14.07
2023-05-13T20:50:37.512Z,14.12
2023-05-13T20:53:05.723Z,14.07
2023-05-13T20:55:33.687Z,13.99
2023-05-13T20:58:01.805Z,14.00
2023-05-13T21:00:29.878Z,13.98
2023-05-13T21:02:58.227Z,13.92
2023-05-13T21:05:26.483Z,13.84
2023-05-13T21:07:54.458Z,13.82
2023-05-13T21:10:23.011Z,13.91
2023-05-13T21:12:51.950Z,13.85
2023-05-13T21:15:20.182Z,13.83
2023-05-13T21:17:48.180Z,13.91
2023-05-13T21:20:16.726Z,13.92
2023-05-13T21:22:44.777Z,13.56
2023-05-13T21:25:13.478Z,13.75
2023-05-13T21:27:41.562Z,13.81
2023-05-13T21:30:10.518Z,13.85
2023-05-13T21:32:38.499Z,13.82
2023-05-13T21:35:07.052Z,13.90
2023-05-13T21:37:35.116Z,13.90
2023-05-13T21:40:03.392Z,13.92
2023-05-13T21:42:31.670Z,13.65
2023-05-13T21:44:59.567Z,13.74
2023-05-13T21:47:29.720Z,13.67
2023-05-13T21:49:58.506Z,13.73
2023-05-13T21:52:26.557Z,13.73
2023-05-13T21:54:54.436Z,13.74
2023-05-13T21:57:22.293Z,13.75
2023-05-13T21:59:50.215Z,13.74
2023-05-13T22:02:18.208Z,13.63
2023-05-13T22:04:46.569Z,13.46
2023-05-13T22:07:14.656Z,13.61
2023-05-13T22:09:42.558Z,13.68
2023-05-13T22:12:10.517Z,13.62
2023-05-13T22:14:38.466Z,13.64
2023-05-13T22:17:09.703Z,13.61
2023-05-13T22:19:38.147Z,13.64
2023-05-13T22:22:06.218Z,13.59
2023-05-13T22:24:34.268Z,13.54
2023-05-13T22:27:02.247Z,13.56
2023-05-13T22:29:30.531Z,13.61
2023-05-13T22:31:58.591Z,13.55
2023-05-13T22:34:26.828Z,13.44
2023-05-13T22:36:54.723Z,13.32
2023-05-13T22:39:22.704Z,13.44
2023-05-13T22:41:50.799Z,13.48
2023-05-13T22:44:18.800Z,13.29
2023-05-13T22:46:46.802Z,13.42
2023-05-13T22:49:14.792Z,13.50
2023-05-13T22:51:43.398Z,13.50
2023-05-13T22:54:11.284Z,13.40
2023-05-13T22:56:39.366Z,13.13
2023-05-13T22:59:07.349Z,13.31
2023-05-13T23:01:35.303Z,13.27
2023-05-13T23:04:06.023Z,13.33
2023-05-13T23:06:34.026Z,13.30
2023-05-13T23:09:01.888Z,13.31
2023-05-13T23:11:29.904Z,13.39
2023-05-13T23:13:58.162Z,13.37
2023-05-13T23:16:26.253Z,13.30
2023-05-13T23:18:55.706Z,13.23
2023-05-13T23:21:23.711Z,13.18
2023-05-13T23:23:52.262Z,13.11
2023-05-13T23:26:20.271Z,13.22
2023-05-13T23:28:48.213Z,13.22
2023-05-13T23:31:16.871Z,13.13
2023-05-13T23:33:44.745Z,13.12
2023-05-13T23:36:12.802Z,12.98
2023-05-13T23:38:41.019Z,12.99
2023-05-13T23:41:09.005Z,13.10
2023-05-13T23:43:36.916Z,13.07
2023-05-13T23:46:04.984Z,13.08
2023-05-13T23:48:32.822Z,13.09
2023-05-13T23:51:00.772Z,13.13
2023-05-13T23:53:28.758Z,13.10
2023-05-13T23:55:57.430Z,12.93
2023-05-13T23:58:25.605Z,13.02
